Time;durP1;ratioP1;P1;durP2;ratioP2;P2;SDS_P1;SDS_P2;PMS_P1;PMS_P2;Temp;Humidity;BMP_temperature;BMP_pressure;BME280_temperature;BME280_humidity;BME280_pressure;Samples;Min_cycle;Max_cycle;Signal;HPM_P1;HPM_P2
2022/08/14 00:02:28;;;;;;;5.23;4.73;;;13.70;99.90;14.20;96468.00;;;;5093834;28;20199;-69
2022/08/14 00:05:21;;;;;;;6.10;5.60;;;13.60;99.90;14.10;96466.00;;;;5077098;28;20214;-70
2022/08/14 00:08:10;;;;;;;7.00;6.27;;;13.40;99.90;14.40;96471.00;;;;5071033;28;20204;-70
2022/08/14 00:10:58;;;;;;;6.47;5.80;;;13.50;99.90;14.40;96460.00;;;;5061058;28;20622;-70
2022/08/14 00:13:48;;;;;;;6.23;5.63;;;13.40;99.90;14.10;96450.00;;;;5062948;28;20219;-69
2022/08/14 00:16:37;;;;;;;6.80;5.23;;;13.40;99.90;13.90;96448.00;;;;5055636;28;20233;-70
2022/08/14 00:19:25;;;;;;;6.80;6.20;;;13.40;99.90;14.00;96453.00;;;;5063777;28;20204;-69
2022/08/14 00:22:17;;;;;;;6.50;5.63;;;13.30;99.90;14.00;96439.00;;;;5066134;28;20278;-71
2022/08/14 00:25:08;;;;;;;6.57;5.70;;;13.30;99.90;13.90;96435.00;;;;5079294;28;20191;-70
2022/08/14 00:27:57;;;;;;;7.13;5.53;;;13.20;99.90;13.60;96451.00;;;;5068512;28;20211;-71
2022/08/14 00:30:46;;;;;;;6.90;5.77;;;13.10;99.90;13.90;96444.00;;;;5062683;28;20196;-69
2022/08/14 00:33:36;;;;;;;6.10;5.50;;;13.00;99.90;14.20;96445.00;;;;5069139;28;20255;-69
2022/08/14 00:36:25;;;;;;;6.70;6.07;;;13.10;99.90;14.30;96439.00;;;;5064585;28;20623;-69
2022/08/14 00:39:17;;;;;;;6.27;5.77;;;13.10;99.90;14.00;96444.00;;;;5069414;28;20203;-70
2022/08/14 00:42:07;;;;;;;6.03;5.43;;;13.10;99.90;13.70;96438.00;;;;5069270;28;20200;-69
2022/08/14 00:44:56;;;;;;;6.63;5.90;;;13.10;99.90;13.40;96434.00;;;;5070362;28;20227;-73
2022/08/14 00:47:47;;;;;;;6.37;5.77;;;13.00;99.90;13.50;96439.00;;;;5073388;28;20203;-72
2022/08/14 00:50:36;;;;;;;8.63;5.63;;;12.90;99.90;13.70;96442.00;;;;5075852;28;20813;-72
2022/08/14 00:53:25;;;;;;;12.40;6.00;;;12.90;99.90;13.50;96437.00;;;;5069782;28;20812;-72
2022/08/14 00:56:15;;;;;;;5.40;4.93;;;12.90;99.90;13.70;96437.00;;;;5072870;28;20976;-70
2022/08/14 00:59:05;;;;;;;6.33;5.73;;;12.90;99.90;13.60;96431.00;;;;5081641;28;20207;-69
2022/08/14 01:01:57;;;;;;;6.23;5.73;;;12.80;99.90;13.40;96426.00;;;;5066414;28;20204;-74
2022/08/14 01:04:47;;;;;;;6.27;5.77;;;12.80;99.90;13.80;96431.00;;;;5067245;28;20222;-69
2022/08/14 01:07:36;;;;;;;9.63;6.37;;;12.80;99.90;13.80;96424.00;;;;5067445;28;20543;-70
2022/08/14 01:10:49;;;;;;;8.23;6.13;;;12.80;99.90;13.70;96433.00;;;;5078952;28;20208;-68
2022/08/14 01:13:40;;;;;;;6.73;6.13;;;12.80;99.90;13.90;96421.00;;;;5061829;28;20702;-69
2022/08/14 01:16:30;;;;;;;6.63;5.33;;;12.80;99.90;14.00;96423.00;;;;5063228;28;20279;-69
2022/08/14 01:22:26;;;;;;;6.57;5.97;;;12.90;99.90;14.10;96421.00;;;;5059845;28;20211;-69
2022/08/14 01:25:15;;;;;;;7.50;6.80;;;13.00;99.90;14.10;96426.00;;;;5066121;28;20578;-69
2022/08/14 01:28:05;;;;;;;7.63;6.43;;;13.10;99.90;14.00;96419.00;;;;5075323;28;20192;-69
2022/08/14 01:30:56;;;;;;;6.83;4.83;;;13.10;99.90;13.90;96418.00;;;;5066882;28;20195;-69
2022/08/14 01:33:49;;;;;;;6.33;5.33;;;13.10;99.90;13.80;96414.00;;;;5070078;28;20319;-68
2022/08/14 01:36:38;;;;;;;7.07;5.37;;;13.00;99.90;13.80;96416.00;;;;5071491;28;20200;-69
2022/08/14 01:39:29;;;;;;;5.87;5.27;;;12.90;99.90;13.50;96413.00;;;;5078536;28;20207;-69
2022/08/14 01:42:18;;;;;;;6.73;6.03;;;12.80;99.90;13.50;96413.00;;;;5064897;28;20203;-69
2022/08/14 01:45:11;;;;;;;6.07;5.47;;;12.80;99.90;13.70;96414.00;;;;5072639;28;20219;-71
2022/08/14 01:48:00;;;;;;;8.30;5.37;;;12.80;99.90;13.70;96415.00;;;;5078922;28;20210;-68
2022/08/14 01:50:49;;;;;;;6.47;5.97;;;12.80;99.90;13.50;96415.00;;;;5069152;28;20199;-69
2022/08/14 01:53:40;;;;;;;7.27;6.00;;;12.80;99.90;13.50;96422.00;;;;5065595;28;20234;-68
2022/08/14 01:56:36;;;;;;;5.83;5.37;;;12.70;99.90;13.50;96412.00;;;;5070666;28;20929;-69
2022/08/14 01:59:31;;;;;;;6.67;6.03;;;12.70;99.90;13.70;96413.00;;;;5073277;28;20605;-69
2022/08/14 02:02:21;;;;;;;5.90;5.40;;;12.60;99.90;13.80;96408.00;;;;5080285;28;20208;-69
2022/08/14 02:05:13;;;;;;;5.97;5.47;;;12.70;99.90;13.40;96419.00;;;;5067350;28;20204;-69
2022/08/14 02:08:02;;;;;;;7.13;6.40;;;12.70;99.90;13.40;96407.00;;;;5063704;28;20196;-68
2022/08/14 02:11:15;;;;;;;8.27;6.37;;;12.70;99.90;13.40;96413.00;;;;5070191;28;20204;-69
2022/08/14 02:14:09;;;;;;;6.87;6.00;;;12.60;99.90;13.30;96412.00;;;;5071352;28;20227;-70
2022/08/14 02:16:58;;;;;;;6.53;5.93;;;12.50;99.90;13.60;96410.00;;;;5064462;28;20200;-68
2022/08/14 02:19:47;;;;;;;8.63;6.70;;;11.70;99.90;13.20;96413.00;;;;5062188;28;20200;-69
2022/08/14 02:22:37;;;;;;;5.97;5.37;;;12.50;99.90;13.00;96405.00;;;;5073066;28;20224;-70
2022/08/14 02:25:26;;;;;;;7.07;6.47;;;12.40;99.90;13.20;96410.00;;;;5073096;28;20592;-68
2022/08/14 02:28:15;;;;;;;8.27;6.57;;;12.40;99.90;13.20;96414.00;;;;5076568;28;20203;-67
2022/08/14 02:31:07;;;;;;;7.07;6.37;;;12.40;99.90;13.00;96412.00;;;;5069053;28;20187;-68
2022/08/14 02:33:56;;;;;;;7.27;6.67;;;12.40;99.90;12.80;96409.00;;;;5073605;28;20222;-68
2022/08/14 02:36:47;;;;;;;6.20;5.50;;;12.30;99.90;12.90;96412.00;;;;5076255;28;20213;-67
2022/08/14 02:39:40;;;;;;;6.90;6.27;;;12.30;99.90;12.70;96404.00;;;;5069518;28;20596;-70
2022/08/14 02:42:28;;;;;;;6.63;6.03;;;12.20;99.90;13.00;96408.00;;;;5086646;28;20220;-67
2022/08/14 02:45:17;;;;;;;7.77;6.77;;;12.20;99.90;12.90;96401.00;;;;5061199;28;20207;-68
2022/08/14 02:48:08;;;;;;;7.87;6.63;;;12.20;99.90;12.90;96410.00;;;;5074403;28;20192;-68
2022/08/14 02:50:57;;;;;;;7.60;6.80;;;12.20;99.90;13.00;96402.00;;;;5072402;28;20215;-70
2022/08/14 02:53:46;;;;;;;7.33;6.73;;;12.30;99.90;13.20;96404.00;;;;5069446;28;20215;-70
2022/08/14 02:56:37;;;;;;;6.57;5.93;;;12.30;99.90;13.10;96398.00;;;;5068298;28;20204;-70
2022/08/14 02:59:30;;;;;;;8.40;6.87;;;12.30;99.90;12.90;96398.00;;;;5069224;28;20287;-70
2022/08/14 03:02:18;;;;;;;7.57;5.33;;;12.30;99.90;12.50;96396.00;;;;5077847;28;20208;-66
2022/08/14 03:05:11;;;;;;;9.37;6.07;;;12.20;99.90;12.90;96403.00;;;;5060463;28;20208;-70
2022/08/14 03:08:08;;;;;;;7.70;7.00;;;12.10;99.90;13.00;96407.00;;;;5062569;28;20212;-71
2022/08/14 03:10:56;;;;;;;7.63;6.80;;;12.20;99.90;13.30;96402.00;;;;5064248;28;20204;-69
2022/08/14 03:13:48;;;;;;;7.10;6.40;;;12.20;99.90;13.40;96405.00;;;;5069789;28;20627;-70
2022/08/14 03:16:38;;;;;;;6.50;5.90;;;12.20;99.90;13.00;96404.00;;;;5071102;28;20216;-68
2022/08/14 03:19:26;;;;;;;7.23;6.00;;;12.30;99.90;12.60;96404.00;;;;5070095;28;20200;-68
2022/08/14 03:22:17;;;;;;;6.27;5.67;;;12.10;99.90;12.90;96404.00;;;;5069985;28;20196;-68
2022/08/14 03:25:07;;;;;;;7.13;6.37;;;12.10;99.90;13.10;96406.00;;;;5067518;28;20699;-68
2022/08/14 03:27:55;;;;;;;7.13;6.53;;;12.10;99.90;13.30;96399.00;;;;5066311;28;20219;-69
2022/08/14 03:30:44;;;;;;;8.10;7.30;;;12.10;99.90;13.60;96403.00;;;;5065727;28;20204;-69
2022/08/14 03:33:35;;;;;;;7.20;6.53;;;12.30;99.90;13.50;96407.00;;;;5069113;28;20591;-72
2022/08/14 03:36:25;;;;;;;7.17;5.77;;;12.40;99.90;13.50;96391.00;;;;5073131;28;20207;-69
2022/08/14 03:39:15;;;;;;;6.00;5.43;;;12.50;99.90;13.60;96388.00;;;;5079225;28;20200;-70
2022/08/14 03:42:05;;;;;;;6.93;6.33;;;12.50;99.90;13.80;96392.00;;;;5074518;28;20207;-70
2022/08/14 03:44:53;;;;;;;7.23;6.53;;;12.60;99.90;13.40;96388.00;;;;5061042;28;20207;-68
2022/08/14 03:47:42;;;;;;;6.90;6.20;;;12.60;99.90;13.10;96384.00;;;;5061035;28;20572;-69
2022/08/14 03:50:33;;;;;;;7.40;6.30;;;12.50;99.90;12.80;96383.00;;;;5058576;28;20203;-68
2022/08/14 03:53:22;;;;;;;7.10;6.40;;;12.40;99.90;13.00;96394.00;;;;5067191;28;20227;-70
2022/08/14 03:56:15;;;;;;;8.03;6.57;;;12.30;99.90;12.70;96386.00;;;;5061697;28;20254;-68
2022/08/14 03:59:08;;;;;;;7.37;6.67;;;12.20;99.90;12.70;96392.00;;;;5064711;28;20214;-68
2022/08/14 04:01:59;;;;;;;7.97;7.17;;;12.10;99.90;12.70;96389.00;;;;5068295;28;20207;-67
2022/08/14 04:04:48;;;;;;;6.10;5.60;;;12.10;99.90;12.40;96383.00;;;;5067921;28;20225;-72
2022/08/14 04:07:38;;;;;;;6.20;5.60;;;12.00;99.90;12.10;96382.00;;;;5061412;28;20206;-69
2022/08/14 04:10:27;;;;;;;8.03;6.70;;;11.90;99.90;12.50;96385.00;;;;5067042;28;20206;-66
2022/08/14 04:13:18;;;;;;;7.63;6.70;;;11.90;99.90;12.30;96383.00;;;;5064630;28;20219;-70
2022/08/14 04:16:09;;;;;;;7.40;6.77;;;11.80;99.90;12.60;96390.00;;;;5060990;28;20220;-69
2022/08/14 04:19:03;;;;;;;7.83;7.03;;;11.80;99.90;13.00;96389.00;;;;5063218;28;20211;-68
2022/08/14 04:21:52;;;;;;;8.40;7.70;;;11.90;99.90;13.20;96390.00;;;;5071441;28;20202;-69
2022/08/14 04:24:41;;;;;;;7.90;7.10;;;12.10;99.90;13.10;96393.00;;;;5056730;28;20230;-69
2022/08/14 04:27:30;;;;;;;6.90;6.07;;;12.10;99.90;13.10;96391.00;;;;5059407;28;20223;-69
2022/08/14 04:30:20;;;;;;;7.20;6.53;;;12.10;99.90;13.00;96386.00;;;;5061496;28;20192;-69
2022/08/14 04:33:10;;;;;;;10.00;7.37;;;;;13.40;96389.00;;;;5065541;28;20226;-69
2022/08/14 04:36:05;;;;;;;6.43;5.83;;;12.20;99.90;13.30;96379.00;;;;5062086;28;20225;-72
2022/08/14 04:45:07;;;;;;;7.97;7.17;;;12.40;99.90;13.50;96392.00;;;;5067859;28;20222;-70
2022/08/14 04:48:15;;;;;;;7.40;6.63;;;12.50;99.90;13.30;96381.00;;;;5068057;28;20219;-68
2022/08/14 04:51:06;;;;;;;11.93;7.20;;;12.50;99.90;13.30;96388.00;;;;5069766;28;20208;-68
2022/08/14 04:53:59;;;;;;;6.47;5.87;;;12.50;99.90;13.70;96392.00;;;;5058287;28;20235;-69
2022/08/14 04:56:48;;;;;;;9.70;6.53;;;12.60;99.90;14.00;96385.00;;;;5060036;28;20713;-69
2022/08/14 04:59:36;;;;;;;6.87;6.17;;;12.70;99.90;13.90;96388.00;;;;5062997;28;20600;-68
2022/08/14 05:02:27;;;;;;;6.30;5.70;;;12.80;99.90;14.00;96378.00;;;;5061916;28;20588;-72
2022/08/14 05:05:19;;;;;;;7.80;6.37;;;12.90;99.90;13.90;96384.00;;;;5067636;28;20200;-69
2022/08/14 05:08:10;;;;;;;7.97;5.80;;;12.90;99.90;13.80;96387.00;;;;5067635;28;20204;-70
2022/08/14 05:11:01;;;;;;;6.93;6.33;;;12.90;99.90;13.90;96359.00;;;;5069108;28;20196;-71
2022/08/14 05:13:50;;;;;;;8.67;6.67;;;13.00;99.90;13.80;96379.00;;;;5042075;28;20225;-70
2022/08/14 05:16:57;;;;;;;10.93;7.00;;;13.00;99.90;14.00;96370.00;;;;5054461;28;20228;-68
2022/08/14 05:19:47;;;;;;;7.30;6.60;;;13.10;99.90;14.00;96365.00;;;;5064635;28;20200;-70
2022/08/14 05:22:37;;;;;;;7.37;6.77;;;13.20;99.90;14.30;96369.00;;;;5055898;28;20421;-69
2022/08/14 05:25:26;;;;;;;7.27;6.50;;;13.30;99.90;14.20;96363.00;;;;5054004;28;20235;-68
2022/08/14 05:28:18;;;;;;;7.13;6.43;;;13.30;99.90;14.40;96352.00;;;;5064957;28;20200;-71
2022/08/14 05:31:08;;;;;;;6.67;6.03;;;13.40;99.90;14.60;96346.00;;;;5057100;28;20702;-68
2022/08/14 05:33:56;;;;;;;7.47;6.63;;;13.60;99.90;15.00;96350.00;;;;5065649;28;20217;-69
2022/08/14 05:36:45;;;;;;;5.53;5.03;;;13.80;99.90;15.20;96338.00;;;;5060067;28;20235;-68
2022/08/14 05:39:35;;;;;;;7.07;6.37;;;13.90;99.90;15.60;96339.00;;;;5074613;28;20206;-69
2022/08/14 05:42:24;;;;;;;9.47;6.30;;;14.10;99.90;15.40;96341.00;;;;5062274;28;20219;-69
2022/08/14 05:45:15;;;;;;;7.57;6.03;;;14.30;99.90;15.50;96338.00;;;;5070720;28;20251;-68
2022/08/14 05:48:06;;;;;;;6.13;5.60;;;14.50;99.90;15.70;96347.00;;;;5067875;28;20207;-68
2022/08/14 05:50:56;;;;;;;6.90;6.20;;;14.60;99.90;15.50;96341.00;;;;5055141;28;20706;-74
2022/08/14 05:53:45;;;;;;;6.37;5.77;;;14.70;99.90;15.70;96351.00;;;;5061888;22;20580;-86
2022/08/14 05:56:35;;;;;;;6.67;6.13;;;14.80;99.90;16.40;96355.00;;;;5067230;28;20235;-86
2022/08/14 05:59:24;;;;;;;6.07;5.10;;;14.90;99.90;16.50;96345.00;;;;5069343;28;20234;-87
2022/08/14 06:02:12;;;;;;;6.30;5.70;;;15.10;99.90;16.60;96344.00;;;;5068004;28;20222;-86
2022/08/14 06:05:01;;;;;;;7.40;5.57;;;15.20;99.90;16.40;96345.00;;;;5070033;28;20211;-86
2022/08/14 06:07:50;;;;;;;5.87;5.37;;;15.30;99.90;16.60;96345.00;;;;5067773;28;20196;-87
2022/08/14 06:10:39;;;;;;;5.83;5.30;;;15.40;99.90;16.80;96342.00;;;;5063250;28;20234;-87
2022/08/14 06:13:31;;;;;;;7.30;6.60;;;15.50;99.90;17.10;96342.00;;;;5070415;28;20203;-86
2022/08/14 06:16:19;;;;;;;5.97;5.47;;;15.70;99.90;17.20;96337.00;;;;5071084;28;20211;-86
2022/08/14 06:19:08;;;;;;;5.83;5.23;;;15.80;99.90;17.30;96336.00;;;;5061267;28;20677;-87
2022/08/14 06:21:57;;;;;;;5.63;5.13;;;15.90;99.90;17.30;96339.00;;;;5071517;28;20196;-85
2022/08/14 06:24:46;;;;;;;6.13;5.53;;;16.00;99.90;17.40;96341.00;;;;5094497;28;20238;-86
2022/08/14 06:27:37;;;;;;;5.90;5.07;;;16.20;99.90;17.60;96341.00;;;;5084957;28;20200;-87
2022/08/14 06:30:33;;;;;;;5.77;5.27;;;16.20;99.90;17.80;96337.00;;;;5063862;28;20228;-87
2022/08/14 06:33:22;;;;;;;5.67;4.80;;;16.40;99.90;18.10;96341.00;;;;5051310;28;20212;-87
2022/08/14 06:36:11;;;;;;;6.30;5.80;;;16.50;99.90;18.30;96332.00;;;;5079571;28;20222;-87
2022/08/14 06:38:59;;;;;;;6.97;5.43;;;16.70;99.90;18.50;96330.00;;;;5063770;28;20208;-87
2022/08/14 06:41:48;;;;;;;5.43;4.80;;;16.90;99.90;18.90;96336.00;;;;5064155;28;20193;-86
2022/08/14 06:44:37;;;;;;;7.57;5.60;;;17.10;99.90;19.00;96332.00;;;;5064408;28;20200;-87
2022/08/14 06:47:27;;;;;;;5.40;4.60;;;17.30;99.90;19.10;96334.00;;;;5060993;28;20204;-86
2022/08/14 06:50:20;;;;;;;5.83;5.33;;;17.50;99.90;19.30;96324.00;;;;5068047;28;20908;-87
2022/08/14 06:53:08;;;;;;;5.27;4.77;;;17.70;99.90;19.60;96336.00;;;;5050192;28;20196;-86
2022/08/14 06:55:57;;;;;;;6.33;5.00;;;17.80;99.90;20.10;96331.00;;;;5050595;28;20220;-87
2022/08/14 06:58:46;;;;;;;8.63;6.00;;;18.10;99.90;20.30;96324.00;;;;5064246;28;20201;-87
2022/08/14 07:07:49;;;;;;;5.27;4.70;;;18.80;99.90;21.20;96340.00;;;;5049915;28;20209;-87
2022/08/14 07:10:38;;;;;;;5.63;4.40;;;19.10;99.90;21.30;96333.00;;;;5060109;28;20230;-87
2022/08/14 07:13:27;;;;;;;5.60;4.70;;;19.30;99.90;21.00;96321.00;;;;5064623;28;20485;-87
2022/08/14 07:16:16;;;;;;;5.10;4.63;;;19.60;99.90;21.80;96327.00;;;;5066867;28;20254;-87
2022/08/14 07:19:07;;;;;;;4.53;4.13;;;19.80;99.90;22.10;96322.00;;;;5070402;28;20192;-87
2022/08/14 07:21:58;;;;;;;5.83;5.23;;;20.00;99.90;22.20;96323.00;;;;5049889;28;20212;-86
2022/08/14 07:24:47;;;;;;;8.37;4.53;;;20.20;99.90;22.40;96320.00;;;;5050429;28;20209;-86
2022/08/14 07:27:36;;;;;;;5.50;3.90;;;20.40;99.90;22.60;96324.00;;;;5061917;28;20236;-87
2022/08/14 07:30:24;;;;;;;6.03;4.80;;;20.50;99.90;22.90;96321.00;;;;5065186;28;20224;-87
2022/08/14 07:33:13;;;;;;;6.67;4.50;;;20.70;99.90;23.10;96321.00;;;;5061558;28;20579;-87
2022/08/14 07:36:06;;;;;;;4.13;3.50;;;20.90;99.90;23.30;96323.00;;;;5070380;28;20199;-86
2022/08/14 07:38:56;;;;;;;4.93;4.10;;;21.10;99.90;23.30;96331.00;;;;5065959;28;20912;-86
2022/08/14 07:41:44;;;;;;;5.27;4.73;;;21.30;99.90;23.60;96331.00;;;;5068061;28;20199;-87
2022/08/14 07:44:33;;;;;;;4.60;4.20;;;21.50;99.90;23.80;96325.00;;;;5075761;28;20198;-87
2022/08/14 07:47:22;;;;;;;4.50;4.17;;;21.70;99.90;23.90;96324.00;;;;5061166;28;20196;-86
2022/08/14 07:50:14;;;;;;;5.70;4.53;;;21.80;99.90;24.10;96325.00;;;;5067134;28;20216;-86
2022/08/14 07:53:03;;;;;;;7.90;3.87;;;21.90;99.90;24.30;96329.00;;;;5057733;28;20207;-87
2022/08/14 07:55:53;;;;;;;4.50;4.10;;;22.10;99.90;24.40;96316.00;;;;5049671;28;20216;-86
2022/08/14 07:58:43;;;;;;;4.33;3.93;;;22.30;99.90;24.60;96320.00;;;;5048348;28;20215;-87
2022/08/14 08:01:32;;;;;;;4.43;4.03;;;22.50;99.90;24.80;96328.00;;;;5064597;28;20193;-87
2022/08/14 08:04:26;;;;;;;4.90;4.10;;;22.60;99.90;24.90;96320.00;;;;5078553;28;20199;-87
2022/08/14 08:07:15;;;;;;;5.97;4.63;;;22.80;99.90;25.20;96314.00;;;;5053392;28;20583;-87
2022/08/14 08:13:16;;;;;;;4.90;4.40;;;23.10;99.90;25.60;96317.00;;;;5070973;28;20218;-87
2022/08/14 08:16:06;;;;;;;4.07;3.70;;;23.30;99.90;25.70;96319.00;;;;5049120;28;20211;-87
2022/08/14 08:18:55;;;;;;;5.50;3.90;;;23.50;99.90;25.90;96311.00;;;;5049859;28;20204;-86
2022/08/14 08:21:47;;;;;;;5.53;4.50;;;23.70;99.90;26.20;96329.00;;;;5067832;28;20200;-87
2022/08/14 08:24:35;;;;;;;4.40;4.00;;;23.90;99.90;26.30;96327.00;;;;5069547;28;20209;-87
2022/08/14 08:27:24;;;;;;;4.20;3.90;;;24.00;99.90;26.40;96326.00;;;;5065510;28;20681;-87
2022/08/14 08:30:15;;;;;;;4.97;4.50;;;24.20;99.90;26.50;96333.00;;;;5067237;28;20225;-87
2022/08/14 08:33:06;;;;;;;6.13;5.53;;;24.30;99.90;26.40;96326.00;;;;5062528;28;20201;-87
2022/08/14 08:35:58;;;;;;;7.47;4.43;;;24.40;99.90;26.20;96324.00;;;;5067444;28;20206;-87
2022/08/14 08:38:49;;;;;;;4.37;3.97;;;24.60;99.90;26.40;96330.00;;;;5066016;28;20609;-88
2022/08/14 08:41:43;;;;;;;4.70;3.93;;;24.60;99.90;27.00;96329.00;;;;5063651;28;20196;-87
2022/08/14 08:44:31;;;;;;;4.57;4.17;;;24.70;99.90;27.10;96314.00;;;;5072470;28;20214;-87
2022/08/14 08:47:22;;;;;;;10.60;4.97;;;24.90;99.90;27.40;96306.00;;;;5052766;28;20201;-86
2022/08/14 08:50:28;;;;;;;4.30;3.90;;;25.10;99.00;27.50;96312.00;;;;5060488;28;20231;-86
2022/08/14 08:53:18;;;;;;;4.43;4.13;;;25.30;98.50;27.80;96303.00;;;;5067341;28;20260;-86
2022/08/14 08:56:07;;;;;;;5.17;4.77;;;25.40;97.90;27.60;96306.00;;;;5062906;28;20201;-88
2022/08/14 08:58:55;;;;;;;4.60;4.20;;;25.60;97.80;27.30;96294.00;;;;5066178;28;20736;-87
2022/08/14 09:01:50;;;;;;;4.93;4.37;;;25.70;95.10;26.50;96299.00;;;;5070244;28;20193;-89
2022/08/14 09:04:43;;;;;;;4.70;3.77;;;25.60;94.20;27.30;96297.00;;;;5068767;28;20284;-88
2022/08/14 09:07:33;;;;;;;4.43;4.03;;;25.60;94.90;27.70;96291.00;;;;5052938;28;20211;-85
2022/08/14 09:10:22;;;;;;;7.20;4.03;;;25.70;94.70;28.50;96320.00;;;;5061925;28;20625;-87
2022/08/14 09:13:12;;;;;;;4.47;4.07;;;26.00;96.20;27.90;96309.00;;;;5065314;28;20576;-87
2022/08/14 09:16:01;;;;;;;6.43;4.67;;;26.00;95.20;27.00;96305.00;;;;5059283;28;20577;-87
2022/08/14 09:18:50;;;;;;;5.57;4.93;;;25.90;94.00;26.90;96304.00;;;;5075604;28;20502;-86
2022/08/14 09:21:40;;;;;;;4.80;4.40;;;25.60;93.80;27.10;96301.00;;;;5056323;28;20394;-86
2022/08/14 09:24:30;;;;;;;4.53;4.13;;;25.50;94.40;27.00;96293.00;;;;5064238;28;20224;-86
2022/08/14 09:27:20;;;;;;;4.93;4.00;;;25.40;94.70;27.10;96281.00;;;;5051847;28;20200;-86
2022/08/14 09:30:10;;;;;;;4.70;4.30;;;25.40;95.20;27.50;96274.00;;;;5062166;28;20227;-87
2022/08/14 09:33:37;;;;;;;4.67;4.27;;;25.50;95.10;27.30;96283.00;;;;5055897;28;20203;-86
2022/08/14 09:37:01;;;;;;;4.60;4.20;;;25.60;93.90;27.50;96274.00;;;;5060200;28;20202;-87
2022/08/14 09:40:01;;;;;;;5.00;4.60;;;25.60;93.00;27.40;96277.00;;;;5068029;28;20691;-86
2022/08/14 09:43:05;;;;;;;7.40;4.40;;;25.80;92.30;27.70;96258.00;;;;5067253;28;20708;-87
2022/08/14 09:45:57;;;;;;;6.10;4.77;;;25.90;92.20;29.00;96271.00;;;;5067124;28;20567;-88
2022/08/14 09:48:47;;;;;;;5.47;4.17;;;26.20;92.60;29.20;96272.00;;;;5066212;28;20584;-87
2022/08/14 09:51:40;;;;;;;4.17;3.80;;;26.60;93.30;29.20;96272.00;;;;5065341;28;20576;-88
2022/08/14 09:54:39;;;;;;;4.93;4.47;;;26.80;93.30;29.30;96261.00;;;;5065553;28;20213;-89
2022/08/14 09:57:30;;;;;;;4.80;4.30;;;27.00;92.30;29.10;96266.00;;;;5078970;28;20575;-88
2022/08/14 10:00:39;;;;;;;4.73;4.33;;;27.10;92.00;29.20;96266.00;;;;5051370;28;20231;-87
2022/08/14 10:03:32;;;;;;;4.57;4.17;;;27.20;92.10;29.30;96256.00;;;;5071164;28;20203;-89
2022/08/14 10:06:24;;;;;;;5.03;4.63;;;27.20;92.30;29.30;96267.00;;;;5058946;28;20222;-87
2022/08/14 10:09:13;;;;;;;4.73;4.23;;;27.30;91.80;29.20;96266.00;;;;5068989;28;20229;-88
2022/08/14 10:12:05;;;;;;;5.10;4.60;;;27.20;91.90;29.40;96267.00;;;;5065954;28;20207;-87
2022/08/14 10:14:55;;;;;;;6.00;4.37;;;27.30;92.10;29.60;96269.00;;;;5066012;28;20284;-88
2022/08/14 10:17:45;;;;;;;5.77;5.17;;;27.40;92.60;29.50;96266.00;;;;5069086;28;20217;-87
2022/08/14 10:20:34;;;;;;;5.13;4.73;;;27.60;92.20;29.70;96266.00;;;;5066321;28;20229;-87
2022/08/14 10:23:27;;;;;;;5.60;5.10;;;27.60;91.90;30.00;96262.00;;;;5077311;28;20218;-88
2022/08/14 10:26:19;;;;;;;8.57;4.70;;;27.70;91.10;30.30;96256.00;;;;5080387;28;20585;-87
2022/08/14 10:29:16;;;;;;;5.40;4.90;;;27.90;91.00;31.40;96230.00;;;;5079494;28;20237;-87
2022/08/14 10:32:07;;;;;;;5.30;4.80;;;28.40;88.70;30.30;96204.00;;;;5076740;28;20201;-87
2022/08/14 10:35:08;;;;;;;5.30;4.80;;;28.70;84.40;29.60;96240.00;;;;5067151;28;20200;-89
2022/08/14 10:38:02;;;;;;;7.50;4.40;;;28.60;84.00;28.60;96237.00;;;;5074523;28;20221;-90
2022/08/14 10:40:51;;;;;;;5.07;4.67;;;28.10;80.20;29.30;96233.00;;;;5079767;28;20228;-88
2022/08/14 10:43:42;;;;;;;4.03;3.73;;;27.80;79.90;28.10;96247.00;;;;5080355;28;20202;-89
2022/08/14 10:46:41;;;;;;;5.10;4.60;;;27.50;79.90;28.40;96249.00;;;;5076462;28;20509;-88
2022/08/14 10:49:30;;;;;;;4.53;4.17;;;27.30;81.40;28.60;96242.00;;;;5076486;28;20230;-89
2022/08/14 10:52:23;;;;;;;4.80;4.30;;;27.20;79.40;28.40;96187.00;;;;5072319;28;20198;-89
2022/08/14 10:55:14;;;;;;;4.00;3.70;;;27.20;80.30;30.10;96186.00;;;;5077387;28;20234;-89
2022/08/14 10:58:05;;;;;;;5.03;4.53;;;27.60;81.40;31.50;96188.00;;;;5093921;28;20205;-88
2022/08/14 11:00:57;;;;;;;4.87;4.33;;;28.20;82.90;31.60;96183.00;;;;5092576;28;20213;-88
2022/08/14 11:03:48;;;;;;;4.80;4.40;;;28.80;80.60;31.80;96184.00;;;;5091532;28;20213;-89
2022/08/14 11:06:37;;;;;;;4.00;3.70;;;29.30;79.70;32.50;96179.00;;;;5076944;28;20224;-87
2022/08/14 11:09:26;;;;;;;4.53;4.00;;;29.70;78.60;33.40;96177.00;;;;5073544;28;20234;-89
2022/08/14 11:12:15;;;;;;;4.37;3.97;;;30.20;76.80;34.30;96176.00;;;;5068682;28;20211;-87
2022/08/14 11:15:06;;;;;;;4.50;4.10;;;30.80;76.50;34.60;96169.00;;;;5073426;28;20210;-87
2022/08/14 11:17:56;;;;;;;4.40;4.10;;;31.30;73.60;35.00;96167.00;;;;5071313;28;20792;-87
2022/08/14 11:20:53;;;;;;;3.90;3.60;;;31.70;71.60;33.80;96240.00;;;;5066465;28;20727;-87
2022/08/14 11:23:42;;;;;;;5.78;4.45;;;31.80;68.60;32.30;96223.00;;;;5071501;28;20695;-87
2022/08/14 11:26:33;;;;;;;5.45;4.85;;;31.20;67.60;31.90;96199.00;;;;5062032;28;20207;-87
2022/08/14 11:29:24;;;;;;;5.65;4.82;;;30.70;69.30;31.60;96223.00;;;;5067501;28;20511;-89
2022/08/14 11:32:12;;;;;;;6.22;5.55;;;30.40;70.30;30.50;96200.00;;;;5066925;28;20202;-89
2022/08/14 11:35:02;;;;;;;4.88;4.47;;;29.90;70.50;30.20;96184.00;;;;5076473;28;20279;-90
2022/08/14 11:38:00;;;;;;;4.95;4.55;;;29.50;69.60;31.30;96170.00;;;;5066985;28;20694;-91
2022/08/14 11:40:49;;;;;;;8.68;4.80;;;29.60;71.10;32.50;96150.00;;;;5060988;28;20224;-88
2022/08/14 11:43:41;;;;;;;5.00;4.60;;;29.90;71.80;33.80;96213.00;;;;5069151;28;20227;-87
2022/08/14 11:46:32;;;;;;;4.07;3.78;;;30.50;74.90;32.40;96205.00;;;;5074731;28;20193;-91
2022/08/14 11:49:26;;;;;;;4.68;4.28;;;30.60;70.50;32.30;96153.00;;;;5072627;28;20257;-88
2022/08/14 11:52:16;;;;;;;4.93;4.32;;;30.50;70.00;33.50;96209.00;;;;5071760;28;20196;-87
2022/08/14 11:55:11;;;;;;;4.57;4.18;;;30.80;71.80;33.50;96155.00;;;;5077865;28;20217;-86
2022/08/14 11:58:05;;;;;;;4.38;4.07;;;31.00;67.70;35.00;96148.00;;;;5069442;28;20225;-86
2022/08/14 12:00:58;;;;;;;4.57;4.18;;;31.60;69.10;34.70;96152.00;;;;5065209;28;20230;-85
2022/08/14 12:03:48;;;;;;;4.32;4.03;;;32.00;65.20;35.30;96219.00;;;;5070996;28;20194;-86
2022/08/14 12:06:51;;;;;;;4.40;4.10;;;32.30;66.10;34.10;96169.00;;;;5075314;28;20507;-87
2022/08/14 12:09:40;;;;;;;3.85;3.55;;;32.20;65.40;34.00;96204.00;;;;5058736;28;20232;-87
2022/08/14 12:12:31;;;;;;;4.40;4.00;;;32.20;63.90;30.80;96210.00;;;;5068503;28;20608;-88
2022/08/14 12:15:30;;;;;;;4.68;4.28;;;31.20;60.10;29.20;96191.00;;;;5062610;28;20571;-85
2022/08/14 12:18:33;;;;;;;6.03;5.43;;;30.00;61.60;30.10;96159.00;;;;5067523;28;20205;-85
2022/08/14 12:21:24;;;;;;;3.75;3.47;;;29.40;63.20;29.70;96192.00;;;;5061601;28;20205;-84
2022/08/14 12:24:13;;;;;;;5.95;4.18;;;29.10;62.70;28.70;96103.00;;;;5053795;28;20668;-85
2022/08/14 12:27:02;;;;;;;4.13;3.80;;;28.60;63.70;30.20;96116.00;;;;5066261;28;20202;-86
2022/08/14 12:29:53;;;;;;;4.40;4.00;;;28.70;65.10;31.30;96113.00;;;;5063350;28;20236;-86
2022/08/14 12:32:46;;;;;;;4.50;4.10;;;29.20;65.40;32.90;96129.00;;;;5059266;28;20204;-86
2022/08/14 12:35:42;;;;;;;4.10;3.70;;;29.90;62.90;31.30;96178.00;;;;5072980;28;20202;-87
2022/08/14 12:38:36;;;;;;;5.90;4.45;;;30.10;61.90;29.50;96180.00;;;;5061950;28;20206;-87
2022/08/14 12:41:28;;;;;;;4.57;4.18;;;29.60;61.20;30.00;96104.00;;;;5054873;28;20394;-86
2022/08/14 12:44:20;;;;;;;4.20;3.80;;;29.30;63.10;29.60;96090.00;;;;5070637;28;20201;-85
2022/08/14 12:47:15;;;;;;;3.80;3.50;;;29.00;64.30;31.00;96107.00;;;;5068055;28;20206;-85
2022/08/14 12:50:05;;;;;;;4.20;3.90;;;29.20;62.50;32.10;96112.00;;;;5065991;28;20230;-86
2022/08/14 12:52:54;;;;;;;3.97;3.67;;;29.70;65.70;31.90;96114.00;;;;5067394;28;20211;-86
2022/08/14 12:55:45;;;;;;;4.05;3.65;;;29.90;62.30;31.80;96107.00;;;;5058797;28;20255;-86
2022/08/14 12:58:36;;;;;;;4.05;3.60;;;30.40;61.80;31.50;96133.00;;;;5059258;28;20208;-85
2022/08/14 13:01:27;;;;;;;4.95;4.30;;;30.40;61.50;31.00;96099.00;;;;5064757;28;20205;-86